Time;durP1;ratioP1;P1;durP2;ratioP2;P2;SDS_P1;SDS_P2;PMS_P1;PMS_P2;Temp;Humidity;BMP_temperature;BMP_pressure;BME280_temperature;BME280_humidity;BME280_pressure;Samples;Min_cycle;Max_cycle;Signal;HPM_P1;HPM_P2
2021/08/01 00:01:35;;;;;;;5.97;5.33;;;20.70;99.90;;;;;;4993224;28;20449;-72
2021/08/01 00:04:00;;;;;;;4.80;4.40;;;20.70;99.90;;;;;;4991573;28;20965;-72
2021/08/01 00:06:26;;;;;;;4.90;4.33;;;20.70;99.90;;;;;;4991035;28;20228;-72
2021/08/01 00:08:53;;;;;;;4.87;4.43;;;20.90;99.90;;;;;;4992857;28;20193;-72
2021/08/01 00:11:19;;;;;;;6.57;5.30;;;20.90;99.90;;;;;;4991120;28;20883;-73
2021/08/01 00:13:44;;;;;;;8.70;4.00;;;21.00;99.90;;;;;;4994245;28;20444;-73
2021/08/01 00:16:10;;;;;;;5.90;4.10;;;20.90;99.90;;;;;;4993478;28;20210;-73
2021/08/01 00:18:36;;;;;;;6.03;3.87;;;21.00;99.90;;;;;;4990662;28;20298;-73
2021/08/01 00:21:03;;;;;;;6.43;4.13;;;21.00;99.90;;;;;;4991003;28;20218;-73
2021/08/01 00:23:28;;;;;;;7.23;4.50;;;20.90;99.90;;;;;;4991993;28;20280;-73
2021/08/01 00:25:56;;;;;;;4.70;4.30;;;20.90;99.90;;;;;;4990922;28;21075;-72
2021/08/01 00:28:21;;;;;;;4.70;4.30;;;20.90;99.90;;;;;;4996964;28;20220;-74
2021/08/01 00:30:47;;;;;;;6.13;5.00;;;21.00;99.90;;;;;;4979867;28;20441;-74
2021/08/01 00:33:13;;;;;;;6.57;5.20;;;21.00;99.90;;;;;;4989087;28;20244;-72
2021/08/01 00:35:38;;;;;;;8.77;4.63;;;20.70;99.90;;;;;;4991508;28;20598;-73
2021/08/01 00:38:06;;;;;;;7.60;5.77;;;20.70;99.90;;;;;;4991690;28;20190;-73
2021/08/01 00:40:31;;;;;;;5.50;5.00;;;20.60;99.90;;;;;;4992814;28;20664;-73
2021/08/01 00:42:57;;;;;;;6.73;4.77;;;20.50;99.90;;;;;;4995403;28;20511;-73
2021/08/01 00:45:22;;;;;;;4.60;4.10;;;20.50;99.90;;;;;;4990576;28;20597;-73
2021/08/01 00:47:48;;;;;;;6.10;4.33;;;20.40;99.90;;;;;;4994389;28;20535;-73
2021/08/01 00:50:14;;;;;;;5.20;4.60;;;20.30;99.90;;;;;;4994685;28;20205;-73
2021/08/01 00:52:40;;;;;;;6.33;4.17;;;20.30;99.90;;;;;;4989603;28;20202;-73
2021/08/01 00:55:10;;;;;;;6.70;4.80;;;20.30;99.90;;;;;;4992338;28;20578;-73
2021/08/01 00:57:37;;;;;;;5.50;4.97;;;20.40;99.90;;;;;;4992296;28;20197;-73
2021/08/01 01:00:31;;;;;;;6.27;5.10;;;20.40;99.90;;;;;;4989366;28;20437;-73
2021/08/01 01:03:07;;;;;;;9.20;5.17;;;20.40;99.90;;;;;;4993162;28;20439;-73
2021/08/01 01:05:44;;;;;;;6.43;4.50;;;20.50;99.90;;;;;;4990985;28;20518;-73
2021/08/01 01:08:58;;;;;;;5.10;4.70;;;20.50;99.90;;;;;;4987215;28;20494;-74
2021/08/01 01:11:29;;;;;;;4.40;4.00;;;20.30;99.90;;;;;;4987765;28;20906;-72
2021/08/01 01:13:56;;;;;;;5.37;4.80;;;20.20;99.90;;;;;;4992429;28;20432;-72
2021/08/01 01:16:24;;;;;;;4.70;4.30;;;20.30;99.90;;;;;;4987067;28;20527;-72
2021/08/01 01:18:53;;;;;;;4.43;4.03;;;20.30;99.90;;;;;;4991682;28;20448;-73
2021/08/01 01:21:43;;;;;;;4.53;4.00;;;20.30;99.90;;;;;;4992790;28;20452;-73
2021/08/01 01:24:20;;;;;;;6.30;4.70;;;20.30;99.90;;;;;;4987554;28;20437;-73
2021/08/01 01:27:23;;;;;;;6.03;4.50;;;20.20;99.90;;;;;;4989086;28;20465;-73
2021/08/01 01:29:57;;;;;;;5.07;4.40;;;20.30;99.90;;;;;;4989658;28;20454;-72
2021/08/01 01:32:29;;;;;;;4.27;3.87;;;20.30;99.90;;;;;;4991044;28;20861;-72
2021/08/01 01:35:10;;;;;;;7.13;4.10;;;20.10;99.90;;;;;;4991097;28;20488;-72
2021/08/01 01:37:36;;;;;;;4.80;4.30;;;20.10;99.90;;;;;;4982980;28;20437;-72
2021/08/01 01:40:03;;;;;;;4.63;4.00;;;20.20;99.90;;;;;;4985002;28;20437;-73
2021/08/01 01:42:31;;;;;;;7.17;4.33;;;20.20;99.90;;;;;;4985252;28;20551;-72
2021/08/01 01:45:00;;;;;;;5.33;4.77;;;20.10;99.90;;;;;;4985105;28;20495;-72
2021/08/01 01:47:26;;;;;;;4.53;4.13;;;20.10;99.90;;;;;;4984007;28;20436;-73
2021/08/01 01:49:55;;;;;;;4.30;3.80;;;20.20;99.90;;;;;;4985530;28;20827;-72
2021/08/01 01:52:23;;;;;;;4.87;4.23;;;20.20;99.90;;;;;;4986917;28;20532;-73
2021/08/01 01:54:49;;;;;;;9.83;4.70;;;20.10;99.90;;;;;;4990149;28;20552;-72
2021/08/01 01:57:15;;;;;;;4.90;4.50;;;20.10;99.90;;;;;;4991213;28;20468;-72
2021/08/01 01:59:41;;;;;;;7.27;3.90;;;20.10;99.90;;;;;;4997117;28;20433;-72
2021/08/01 02:02:08;;;;;;;4.67;4.27;;;20.10;99.90;;;;;;4984454;28;20945;-73
2021/08/01 02:04:35;;;;;;;6.13;4.90;;;20.10;99.90;;;;;;4991461;28;20689;-72
2021/08/01 02:07:01;;;;;;;4.60;3.90;;;20.10;99.90;;;;;;4983931;28;20436;-73
2021/08/01 02:09:35;;;;;;;7.53;4.40;;;20.10;99.90;;;;;;4986737;28;20857;-72
2021/08/01 02:12:07;;;;;;;4.37;4.00;;;20.00;99.90;;;;;;4985512;28;20554;-73
2021/08/01 02:14:53;;;;;;;6.90;4.10;;;20.10;99.90;;;;;;4986406;28;20471;-73
2021/08/01 02:17:25;;;;;;;4.97;4.47;;;20.00;99.90;;;;;;4986351;28;20453;-71
2021/08/01 02:19:52;;;;;;;4.97;4.40;;;19.90;99.90;;;;;;4984598;28;20432;-74
2021/08/01 02:22:19;;;;;;;7.23;4.50;;;20.00;99.90;;;;;;4988390;28;20433;-73
2021/08/01 02:24:48;;;;;;;6.93;4.30;;;19.90;99.90;;;;;;4986990;28;20441;-72
2021/08/01 02:27:14;;;;;;;6.17;4.70;;;20.00;99.90;;;;;;4982279;28;20532;-72
2021/08/01 02:29:40;;;;;;;4.47;4.10;;;20.10;99.90;;;;;;4986544;28;20503;-72
2021/08/01 02:32:07;;;;;;;5.07;4.20;;;19.90;99.90;;;;;;4985896;28;20444;-72
2021/08/01 02:34:33;;;;;;;6.90;4.23;;;20.00;99.90;;;;;;4989025;28;20188;-72
2021/08/01 02:37:00;;;;;;;4.80;4.40;;;19.90;99.90;;;;;;4987622;28;20877;-72
2021/08/01 02:39:26;;;;;;;5.07;3.80;;;19.70;99.90;;;;;;4987783;28;20688;-72
2021/08/01 02:41:53;;;;;;;5.00;4.10;;;19.80;99.90;;;;;;4989188;28;20461;-72
2021/08/01 02:44:26;;;;;;;5.50;3.80;;;19.80;99.90;;;;;;4986158;28;20209;-74
2021/08/01 02:46:53;;;;;;;7.70;4.40;;;19.80;99.90;;;;;;4982102;28;20499;-74
2021/08/01 02:49:22;;;;;;;5.07;4.30;;;19.70;99.90;;;;;;4990164;28;20445;-72
2021/08/01 02:51:51;;;;;;;4.37;3.40;;;19.70;99.90;;;;;;4987218;28;20443;-73
2021/08/01 02:54:18;;;;;;;4.20;3.57;;;19.60;99.90;;;;;;4986585;28;20429;-74
2021/08/01 02:56:45;;;;;;;7.50;4.57;;;19.50;99.90;;;;;;4987312;28;20946;-73
2021/08/01 02:59:12;;;;;;;4.90;4.40;;;19.50;99.90;;;;;;4987645;28;20441;-73
2021/08/01 03:01:41;;;;;;;5.80;5.07;;;19.60;99.90;;;;;;4987825;28;20443;-73
2021/08/01 03:04:07;;;;;;;6.40;4.53;;;19.60;99.90;;;;;;4989962;28;20437;-73
2021/08/01 03:06:34;;;;;;;5.30;4.80;;;19.50;99.90;;;;;;4985989;28;20521;-73
2021/08/01 03:09:04;;;;;;;5.13;4.40;;;19.40;99.90;;;;;;4986150;28;20434;-73
2021/08/01 03:11:34;;;;;;;5.90;4.27;;;19.40;99.90;;;;;;4989633;28;20424;-73
2021/08/01 03:14:01;;;;;;;7.03;4.37;;;19.40;99.90;;;;;;4985098;28;20432;-73
2021/08/01 03:16:27;;;;;;;7.47;5.57;;;19.40;99.90;;;;;;4990403;28;20469;-73
2021/08/01 03:18:53;;;;;;;4.30;3.90;;;19.30;99.90;;;;;;4987252;28;20449;-73
2021/08/01 03:21:18;;;;;;;6.20;4.23;;;19.30;99.90;;;;;;4987377;28;20464;-73
2021/08/01 03:23:44;;;;;;;5.67;4.47;;;19.20;99.90;;;;;;4989317;28;20190;-73
2021/08/01 03:26:10;;;;;;;6.50;3.80;;;19.10;99.90;;;;;;4970251;28;20214;-72
2021/08/01 03:28:35;;;;;;;4.50;4.10;;;19.20;99.90;;;;;;4986791;28;20194;-73
2021/08/01 03:31:01;;;;;;;5.50;4.47;;;19.20;99.90;;;;;;4986334;28;20261;-72
2021/08/01 03:33:27;;;;;;;4.63;4.23;;;19.10;99.90;;;;;;4986057;28;20214;-72
2021/08/01 03:35:52;;;;;;;5.80;4.27;;;19.00;99.90;;;;;;4985945;28;20221;-72
2021/08/01 03:38:18;;;;;;;4.47;3.90;;;19.00;99.90;;;;;;4987132;28;20182;-74
2021/08/01 03:40:44;;;;;;;6.00;5.23;;;19.00;99.90;;;;;;4986762;28;20651;-74
2021/08/01 03:43:10;;;;;;;6.07;5.00;;;18.90;99.90;;;;;;4984209;28;20192;-73
2021/08/01 03:45:35;;;;;;;6.90;4.70;;;18.80;99.90;;;;;;4991272;28;20221;-73
2021/08/01 03:48:01;;;;;;;5.10;4.63;;;18.90;99.90;;;;;;4989986;28;20182;-73
2021/08/01 03:50:27;;;;;;;4.80;4.40;;;19.00;99.90;;;;;;4990209;28;20186;-73
2021/08/01 03:52:52;;;;;;;8.30;5.03;;;19.00;99.90;;;;;;4991163;28;20220;-73
2021/08/01 03:55:18;;;;;;;5.87;4.63;;;18.90;99.90;;;;;;4987727;28;20260;-73
2021/08/01 03:57:43;;;;;;;7.13;4.33;;;18.70;99.90;;;;;;4991092;28;20217;-73
2021/08/01 04:00:10;;;;;;;10.03;5.10;;;18.70;99.90;;;;;;4990912;28;20193;-73
2021/08/01 04:02:37;;;;;;;8.77;5.97;;;18.90;99.90;;;;;;4987855;28;20208;-73
2021/08/01 04:05:04;;;;;;;10.73;4.60;;;18.90;99.90;;;;;;4987825;28;20445;-72
2021/08/01 04:07:30;;;;;;;4.63;4.13;;;18.90;99.90;;;;;;4989896;28;20444;-72
2021/08/01 04:09:56;;;;;;;6.40;4.67;;;18.90;99.90;;;;;;4992682;28;20433;-72
2021/08/01 04:12:22;;;;;;;4.80;4.20;;;18.80;99.90;;;;;;4992390;28;20474;-72
2021/08/01 04:14:48;;;;;;;5.30;4.80;;;18.90;99.90;;;;;;4974234;28;20269;-73
2021/08/01 04:17:18;;;;;;;5.73;4.33;;;18.70;99.90;;;;;;4989312;28;20834;-72
2021/08/01 04:19:47;;;;;;;6.73;5.43;;;18.80;99.90;;;;;;4988516;28;20516;-73
2021/08/01 04:22:17;;;;;;;5.80;5.13;;;18.70;99.90;;;;;;4975204;28;20437;-72
2021/08/01 04:24:43;;;;;;;7.57;4.87;;;18.80;99.90;;;;;;4989173;28;20483;-72
2021/08/01 04:27:08;;;;;;;8.03;4.90;;;18.80;99.90;;;;;;4988453;28;20429;-72
2021/08/01 04:29:34;;;;;;;5.10;4.60;;;18.70;99.90;;;;;;4976293;28;20573;-73
2021/08/01 04:32:00;;;;;;;5.13;4.63;;;18.70;99.90;;;;;;4988684;28;20428;-73
2021/08/01 04:34:26;;;;;;;5.23;4.00;;;18.60;99.90;;;;;;4986304;28;20212;-73
2021/08/01 04:36:52;;;;;;;6.13;4.10;;;18.70;99.90;;;;;;4989131;28;20244;-73
2021/08/01 04:39:18;;;;;;;6.50;4.70;;;18.80;99.90;;;;;;4990420;28;20461;-73
2021/08/01 04:41:44;;;;;;;5.53;4.90;;;18.80;99.90;;;;;;4987338;28;20472;-73
2021/08/01 04:44:09;;;;;;;12.60;5.90;;;18.80;99.90;;;;;;4988736;28;20645;-73
2021/08/01 04:46:35;;;;;;;4.67;4.17;;;18.80;99.90;;;;;;4989550;28;20233;-72
2021/08/01 04:49:01;;;;;;;6.03;5.43;;;18.80;99.90;;;;;;4984922;28;20182;-73
2021/08/01 04:51:26;;;;;;;5.07;4.67;;;18.70;99.90;;;;;;4986729;28;20644;-72
2021/08/01 04:53:52;;;;;;;5.37;4.87;;;18.70;99.90;;;;;;4988921;28;20190;-72
2021/08/01 04:56:18;;;;;;;7.37;5.00;;;18.70;99.90;;;;;;4986815;28;20581;-73
2021/08/01 04:58:43;;;;;;;6.87;4.60;;;18.70;99.90;;;;;;4989513;28;20190;-73
2021/08/01 05:01:13;;;;;;;5.00;4.50;;;18.70;99.90;;;;;;4987854;28;20189;-74
2021/08/01 05:03:39;;;;;;;5.33;4.83;;;18.70;99.90;;;;;;4988054;28;20182;-74
2021/08/01 05:06:05;;;;;;;5.03;4.63;;;18.70;99.90;;;;;;4986082;28;20444;-74
2021/08/01 05:08:31;;;;;;;6.23;4.27;;;18.80;99.90;;;;;;4988822;28;20444;-73
2021/08/01 05:10:56;;;;;;;6.17;5.30;;;18.80;99.90;;;;;;4986865;28;20186;-72
2021/08/01 05:13:25;;;;;;;5.00;4.60;;;18.70;99.90;;;;;;4988461;28;20924;-73
2021/08/01 05:15:51;;;;;;;9.90;4.70;;;18.60;99.90;;;;;;4987350;28;20206;-73
2021/08/01 05:18:17;;;;;;;7.00;4.70;;;18.60;99.90;;;;;;4987686;28;20436;-73
2021/08/01 05:20:43;;;;;;;6.40;5.07;;;18.70;99.90;;;;;;4988293;28;20174;-73
2021/08/01 05:23:10;;;;;;;5.27;4.77;;;18.40;99.90;;;;;;4986156;28;20595;-73
2021/08/01 05:25:38;;;;;;;6.50;4.87;;;18.60;99.90;;;;;;4989495;28;20475;-73
2021/08/01 05:28:04;;;;;;;12.07;5.10;;;18.50;99.90;;;;;;4988545;28;20433;-74
2021/08/01 05:30:30;;;;;;;8.10;5.17;;;18.50;99.90;;;;;;4981537;28;20419;-74
2021/08/01 05:32:56;;;;;;;6.10;4.70;;;18.70;99.90;;;;;;4988516;28;20174;-73
2021/08/01 05:35:21;;;;;;;6.17;4.57;;;18.70;99.90;;;;;;4972041;28;20217;-74
2021/08/01 05:37:47;;;;;;;5.53;4.90;;;18.80;99.90;;;;;;4988696;28;20214;-73
2021/08/01 05:40:13;;;;;;;6.37;4.93;;;19.00;99.90;;;;;;4988210;28;20264;-73
2021/08/01 05:42:39;;;;;;;4.83;4.33;;;18.90;99.90;;;;;;4972706;28;20648;-73
2021/08/01 05:45:06;;;;;;;6.53;4.80;;;19.00;99.90;;;;;;4991222;28;20210;-73
2021/08/01 05:47:36;;;;;;;5.67;4.53;;;19.00;99.90;;;;;;4988356;28;20432;-73
2021/08/01 05:50:02;;;;;;;6.23;4.37;;;19.00;99.90;;;;;;4986217;28;20519;-73
2021/08/01 05:52:27;;;;;;;5.00;4.50;;;18.90;99.90;;;;;;4984539;28;20524;-73
2021/08/01 05:54:53;;;;;;;5.60;5.07;;;19.10;99.90;;;;;;4990331;28;20300;-73
2021/08/01 05:57:19;;;;;;;5.13;4.63;;;19.10;99.90;;;;;;4988617;28;20277;-73
2021/08/01 05:59:45;;;;;;;6.47;5.17;;;19.00;99.90;;;;;;4987064;28;20548;-73
2021/08/01 06:02:12;;;;;;;5.03;4.30;;;19.00;99.90;;;;;;4987021;28;20453;-73
2021/08/01 06:04:38;;;;;;;7.60;5.50;;;18.90;99.90;;;;;;4985476;28;20515;-74
2021/08/01 06:07:05;;;;;;;4.60;4.10;;;18.80;99.90;;;;;;4987489;28;20542;-73
2021/08/01 06:09:31;;;;;;;6.17;4.83;;;18.90;99.90;;;;;;4984339;28;20429;-74
2021/08/01 06:11:56;;;;;;;5.17;4.67;;;18.80;99.90;;;;;;4987709;28;20563;-74
2021/08/01 06:14:25;;;;;;;4.50;4.10;;;18.80;99.90;;;;;;4986675;28;20768;-73
2021/08/01 06:16:51;;;;;;;6.37;4.70;;;18.80;99.90;;;;;;4971389;28;20219;-73
2021/08/01 06:19:17;;;;;;;5.80;5.30;;;18.80;99.90;;;;;;4990516;28;20463;-74
2021/08/01 06:21:42;;;;;;;5.20;4.20;;;18.70;99.90;;;;;;4987908;28;20203;-73
2021/08/01 06:24:08;;;;;;;6.77;4.37;;;18.60;99.90;;;;;;4989234;28;20190;-73
2021/08/01 06:26:33;;;;;;;5.50;4.00;;;18.70;99.90;;;;;;4991788;28;20224;-74
2021/08/01 06:28:59;;;;;;;4.20;3.80;;;18.80;99.90;;;;;;4987845;28;20187;-73
2021/08/01 06:31:25;;;;;;;3.80;3.40;;;18.80;99.90;;;;;;4990979;28;20185;-73
2021/08/01 06:33:51;;;;;;;5.63;3.47;;;18.80;99.90;;;;;;4991725;28;20182;-74
2021/08/01 06:36:17;;;;;;;3.33;3.03;;;18.80;99.90;;;;;;4986094;28;20488;-74
2021/08/01 06:38:44;;;;;;;4.90;3.13;;;18.80;99.90;;;;;;4990836;28;20782;-74
2021/08/01 06:41:10;;;;;;;5.00;3.10;;;18.80;99.90;;;;;;4988113;28;20224;-74
2021/08/01 06:43:36;;;;;;;5.00;2.97;;;18.80;99.90;;;;;;4989312;28;20441;-73
2021/08/01 06:46:02;;;;;;;3.10;2.80;;;18.80;99.90;;;;;;4988255;28;20485;-74
2021/08/01 06:48:28;;;;;;;4.30;3.20;;;18.80;99.90;;;;;;4986943;28;20433;-73
2021/08/01 06:50:54;;;;;;;3.53;3.13;;;18.70;99.90;;;;;;4990820;28;20198;-73
2021/08/01 06:53:20;;;;;;;7.10;3.47;;;18.70;99.90;;;;;;4993230;28;20443;-72
2021/08/01 06:55:46;;;;;;;3.60;2.57;;;18.50;99.90;;;;;;4982770;28;20551;-72
2021/08/01 06:58:11;;;;;;;3.70;3.40;;;18.60;99.90;;;;;;4969420;28;20244;-72
2021/08/01 07:00:37;;;;;;;4.10;3.50;;;18.50;99.90;;;;;;4989061;28;20472;-73
2021/08/01 07:03:03;;;;;;;5.40;3.20;;;18.60;99.90;;;;;;4988021;28;20240;-73
2021/08/01 07:05:30;;;;;;;3.60;3.30;;;18.60;99.90;;;;;;4988893;28;20292;-73
2021/08/01 07:07:59;;;;;;;5.30;3.70;;;18.70;99.90;;;;;;4986662;28;20417;-73
2021/08/01 07:10:25;;;;;;;3.40;3.10;;;18.70;99.90;;;;;;4986942;28;20559;-73
2021/08/01 07:12:51;;;;;;;5.07;3.33;;;18.70;99.90;;;;;;4990144;28;20524;-72
2021/08/01 07:15:22;;;;;;;4.50;4.10;;;18.70;99.90;;;;;;4987018;28;20990;-73
2021/08/01 07:17:48;;;;;;;4.20;3.33;;;18.50;99.90;;;;;;4990217;28;20433;-73
2021/08/01 07:20:15;;;;;;;4.33;3.90;;;18.50;99.90;;;;;;4991872;28;20437;-73
2021/08/01 07:22:41;;;;;;;6.20;3.43;;;18.40;99.90;;;;;;4990600;28;20443;-74
2021/08/01 07:25:08;;;;;;;3.83;3.10;;;18.50;99.90;;;;;;4992014;28;20455;-73
2021/08/01 07:27:34;;;;;;;5.00;3.53;;;18.60;99.90;;;;;;4998797;28;20417;-72
2021/08/01 07:30:00;;;;;;;4.17;3.77;;;18.70;99.90;;;;;;4990401;28;20514;-72
2021/08/01 07:32:25;;;;;;;3.40;3.10;;;18.80;99.90;;;;;;4996327;28;20690;-72
2021/08/01 07:34:51;;;;;;;3.50;3.10;;;18.80;99.90;;;;;;4994613;28;20305;-72
2021/08/01 07:37:17;;;;;;;5.67;3.70;;;18.90;99.90;;;;;;4993802;28;20762;-72
2021/08/01 07:39:43;;;;;;;4.13;3.40;;;18.90;99.90;;;;;;4990083;28;20189;-71
2021/08/01 07:42:09;;;;;;;6.13;4.13;;;18.90;99.90;;;;;;4993528;28;20985;-72
2021/08/01 07:44:46;;;;;;;4.53;3.70;;;18.90;99.90;;;;;;4993362;28;20923;-71
2021/08/01 07:47:13;;;;;;;4.80;3.17;;;19.00;99.90;;;;;;4990576;28;20462;-72
2021/08/01 07:49:39;;;;;;;3.97;3.60;;;19.20;99.90;;;;;;4994900;28;20938;-71
2021/08/01 07:52:05;;;;;;;7.23;3.80;;;19.20;99.90;;;;;;4990791;28;20491;-72
2021/08/01 07:54:33;;;;;;;3.20;2.90;;;19.20;99.90;;;;;;4993626;28;20436;-72
2021/08/01 07:56:59;;;;;;;6.00;3.20;;;19.20;99.90;;;;;;4989298;28;20507;-72
2021/08/01 07:59:24;;;;;;;3.67;3.03;;;19.20;99.90;;;;;;4993229;28;20481;-72
2021/08/01 08:01:50;;;;;;;7.83;4.30;;;19.20;99.90;;;;;;4990885;28;20251;-71
2021/08/01 08:04:16;;;;;;;4.60;3.63;;;19.30;99.90;;;;;;4986708;28;20236;-72
2021/08/01 08:06:41;;;;;;;4.03;3.73;;;19.30;99.90;;;;;;4985333;28;20252;-71
2021/08/01 08:09:07;;;;;;;4.57;3.83;;;19.30;99.90;;;;;;4986086;28;20205;-72
2021/08/01 08:11:33;;;;;;;4.57;3.87;;;19.30;99.90;;;;;;4988897;28;20182;-71
2021/08/01 08:13:58;;;;;;;4.33;3.60;;;19.30;99.90;;;;;;4988750;28;20194;-72
2021/08/01 08:16:24;;;;;;;4.13;3.73;;;19.30;99.90;;;;;;5002049;28;20236;-72
2021/08/01 08:18:50;;;;;;;5.73;3.70;;;19.40;99.90;;;;;;4985749;28;20186;-72
2021/08/01 08:21:17;;;;;;;6.20;4.30;;;19.50;99.90;;;;;;5003967;28;20204;-72
2021/08/01 08:23:43;;;;;;;7.37;4.00;;;19.40;99.90;;;;;;4999202;28;20440;-72
2021/08/01 08:26:12;;;;;;;5.43;3.77;;;19.40;99.90;;;;;;4991826;28;20461;-72
2021/08/01 08:28:38;;;;;;;4.60;3.80;;;19.50;99.90;;;;;;4972821;28;20995;-73
2021/08/01 08:31:03;;;;;;;7.53;3.90;;;19.50;99.90;;;;;;4990427;28;20510;-73
2021/08/01 08:33:29;;;;;;;5.20;4.30;;;19.60;99.90;;;;;;4987718;28;20194;-72
2021/08/01 08:35:55;;;;;;;6.10;5.10;;;19.70;99.90;;;;;;4993163;28;20797;-72
2021/08/01 08:38:20;;;;;;;8.10;4.13;;;19.60;99.90;;;;;;4990547;28;20658;-72
2021/08/01 08:40:46;;;;;;;4.57;3.67;;;19.60;99.90;;;;;;4991179;28;20194;-72
2021/08/01 08:43:12;;;;;;;4.60;4.10;;;19.60;99.90;;;;;;4989644;28;20907;-73
2021/08/01 08:45:45;;;;;;;4.90;3.80;;;19.50;99.90;;;;;;4993823;28;20209;-73
2021/08/01 08:48:12;;;;;;;5.80;3.90;;;19.60;99.90;;;;;;4984279;28;20564;-72
2021/08/01 08:50:39;;;;;;;5.47;4.47;;;19.70;99.90;;;;;;4989385;28;20429;-72
2021/08/01 08:53:06;;;;;;;4.57;4.17;;;19.70;99.90;;;;;;4989042;28;20444;-72
2021/08/01 08:55:34;;;;;;;5.30;4.30;;;19.90;99.90;;;;;;4984507;28;20502;-73
2021/08/01 08:58:02;;;;;;;6.80;4.70;;;20.00;99.90;;;;;;4990679;28;20525;-72
2021/08/01 09:00:29;;;;;;;4.80;4.30;;;20.10;99.90;;;;;;4993001;28;20495;-72
2021/08/01 09:02:55;;;;;;;6.20;4.33;;;20.00;99.90;;;;;;4986587;28;20440;-73
2021/08/01 09:05:22;;;;;;;5.07;4.10;;;20.00;99.90;;;;;;4989126;28;20531;-72
2021/08/01 09:07:48;;;;;;;4.70;4.30;;;20.10;99.90;;;;;;4987284;28;20433;-73
2021/08/01 09:10:15;;;;;;;4.70;4.20;;;20.20;99.90;;;;;;4986830;28;21049;-73
2021/08/01 09:12:45;;;;;;;5.60;5.10;;;20.30;99.90;;;;;;4991012;28;20443;-72
2021/08/01 09:15:24;;;;;;;5.07;4.50;;;20.40;99.90;;;;;;4989645;28;20452;-72
2021/08/01 09:17:50;;;;;;;6.93;4.30;;;20.40;99.90;;;;;;4991001;28;20461;-72
2021/08/01 09:20:19;;;;;;;8.00;5.20;;;20.50;99.90;;;;;;4989705;28;20440;-73
2021/08/01 09:23:00;;;;;;;8.70;5.87;;;20.50;99.90;;;;;;4992104;28;20524;-72
2021/08/01 09:25:28;;;;;;;4.50;4.10;;;20.60;99.90;;;;;;4988110;28;20890;-71
2021/08/01 09:28:19;;;;;;;4.80;4.30;;;20.60;99.90;;;;;;4989686;28;20433;-72
2021/08/01 09:31:05;;;;;;;5.20;4.30;;;20.70;99.90;;;;;;4991490;28;20444;-71
2021/08/01 09:33:34;;;;;;;4.90;4.00;;;20.60;99.90;;;;;;4986291;28;20495;-72
2021/08/01 09:36:16;;;;;;;6.83;4.90;;;20.70;99.90;;;;;;4989178;28;20469;-72
2021/08/01 09:38:51;;;;;;;5.40;4.87;;;20.60;99.90;;;;;;4995319;28;20432;-72
2021/08/01 09:41:21;;;;;;;5.70;5.07;;;20.60;99.90;;;;;;4989585;28;20438;-72
2021/08/01 09:43:52;;;;;;;7.10;5.13;;;20.60;99.90;;;;;;4991366;28;20437;-72
2021/08/01 09:46:19;;;;;;;5.60;5.10;;;20.60;99.90;;;;;;4990994;28;20469;-73
2021/08/01 09:48:46;;;;;;;7.23;5.80;;;20.60;99.90;;;;;;4989248;28;20524;-73
2021/08/01 09:51:15;;;;;;;5.50;4.83;;;20.70;99.90;;;;;;4987703;28;21037;-72
2021/08/01 09:53:41;;;;;;;6.00;4.93;;;20.60;99.90;;;;;;4988968;28;20819;-72
2021/08/01 09:56:21;;;;;;;5.20;4.63;;;20.50;99.90;;;;;;4989685;28;20571;-72
2021/08/01 09:58:49;;;;;;;6.67;5.10;;;20.50;99.90;;;;;;4987256;28;20272;-72
2021/08/01 10:01:16;;;;;;;5.83;4.40;;;20.70;99.90;;;;;;4991019;28;20425;-72
2021/08/01 10:03:52;;;;;;;5.57;4.90;;;20.60;99.90;;;;;;4990803;28;20495;-72
2021/08/01 10:06:21;;;;;;;5.60;4.67;;;20.60;99.90;;;;;;4992843;28;20478;-73
2021/08/01 10:08:53;;;;;;;10.37;4.80;;;20.80;99.90;;;;;;4990903;28;20457;-72
2021/08/01 10:11:25;;;;;;;5.00;4.50;;;20.80;99.90;;;;;;4988421;28;20433;-72
2021/08/01 10:13:54;;;;;;;5.87;5.20;;;21.00;99.90;;;;;;4988321;28;20452;-72
2021/08/01 10:16:21;;;;;;;5.00;4.53;;;20.90;99.90;;;;;;4986537;28;20468;-72
2021/08/01 10:18:49;;;;;;;7.60;4.80;;;20.80;99.90;;;;;;4987460;28;21363;-73
2021/08/01 10:21:23;;;;;;;4.87;4.33;;;20.90;99.90;;;;;;4987283;28;20449;-72
2021/08/01 10:23:56;;;;;;;6.63;4.93;;;21.00;99.90;;;;;;4987417;28;20813;-72
2021/08/01 10:26:26;;;;;;;5.87;5.07;;;21.00;99.90;;;;;;4979481;28;20465;-72
2021/08/01 10:28:54;;;;;;;5.33;4.83;;;21.00;99.90;;;;;;4988813;28;20452;-73
2021/08/01 10:31:30;;;;;;;7.70;5.40;;;21.20;99.90;;;;;;4989959;28;20441;-73
2021/08/01 10:34:11;;;;;;;6.80;4.73;;;21.30;99.90;;;;;;4987647;28;20491;-72
2021/08/01 10:36:38;;;;;;;4.83;4.00;;;21.40;99.90;;;;;;4989975;28;20565;-71
2021/08/01 10:39:08;;;;;;;5.90;4.73;;;21.50;99.90;;;;;;4991495;28;20571;-72
2021/08/01 10:41:36;;;;;;;5.00;4.50;;;21.40;99.90;;;;;;4987227;28;20436;-71
2021/08/01 10:44:10;;;;;;;5.20;4.70;;;21.50;99.90;;;;;;4992559;28;20930;-71
2021/08/01 10:46:39;;;;;;;5.77;4.33;;;21.50;99.90;;;;;;5004253;28;20468;-72
2021/08/01 10:49:09;;;;;;;4.50;4.10;;;21.50;99.90;;;;;;4984948;28;20453;-72
2021/08/01 10:51:35;;;;;;;5.97;4.27;;;21.70;99.90;;;;;;4988190;28;20427;-72
2021/08/01 10:54:19;;;;;;;4.37;3.97;;;21.60;99.90;;;;;;4995052;28;20467;-72
2021/08/01 10:56:45;;;;;;;4.80;4.40;;;21.40;99.90;;;;;;4994269;28;20476;-72
2021/08/01 10:59:45;;;;;;;5.33;4.63;;;21.30;99.90;;;;;;4997931;28;20441;-72
2021/08/01 11:02:15;;;;;;;5.97;3.90;;;21.40;99.90;;;;;;4992605;28;20796;-72
2021/08/01 11:04:44;;;;;;;4.93;4.53;;;21.40;99.90;;;;;;4991578;28;20432;-72
2021/08/01 11:07:10;;;;;;;5.63;4.10;;;21.40;99.90;;;;;;4989563;28;20442;-72
2021/08/01 11:09:35;;;;;;;5.00;4.27;;;21.40;99.90;;;;;;4992821;28;20437;-70
2021/08/01 11:12:19;;;;;;;7.37;4.50;;;21.50;99.90;;;;;;4992132;28;20238;-71
2021/08/01 11:14:48;;;;;;;5.97;3.73;;;21.60;99.90;;;;;;4993793;28;20194;-71
2021/08/01 11:17:16;;;;;;;5.30;4.00;;;21.70;99.90;;;;;;4992906;28;20465;-70
2021/08/01 11:19:42;;;;;;;5.60;4.33;;;21.80;99.90;;;;;;4991292;28;20492;-71
2021/08/01 11:22:40;;;;;;;5.70;4.40;;;21.80;99.90;;;;;;4994957;28;20472;-71
2021/08/01 11:25:18;;;;;;;4.80;3.73;;;22.00;99.90;;;;;;4995929;28;20453;-71
2021/08/01 11:28:09;;;;;;;6.73;3.87;;;22.00;99.90;;;;;;4990505;28;20440;-71
2021/08/01 11:33:34;;;;;;;4.90;4.40;;;22.20;99.90;;;;;;4994279;28;20515;-71
2021/08/01 11:36:12;;;;;;;4.07;3.70;;;22.30;99.90;;;;;;4985849;28;20478;-71
2021/08/01 11:38:56;;;;;;;3.90;3.60;;;22.50;99.90;;;;;;4990316;28;20441;-71
2021/08/01 11:41:33;;;;;;;6.20;4.03;;;22.40;99.90;;;;;;4985867;28;20435;-72
2021/08/01 11:44:12;;;;;;;4.77;3.47;;;22.50;99.90;;;;;;4992096;28;20519;-71
2021/08/01 11:46:58;;;;;;;4.33;4.00;;;22.60;99.90;;;;;;4991787;28;20538;-71
2021/08/01 11:49:54;;;;;;;3.50;3.20;;;22.80;99.90;;;;;;4989463;28;20441;-71
2021/08/01 11:52:32;;;;;;;3.93;3.10;;;23.00;99.90;;;;;;4987905;28;20449;-72
2021/08/01 11:54:58;;;;;;;3.60;3.30;;;23.10;99.90;;;;;;4994340;28;20471;-71
2021/08/01 11:57:29;;;;;;;5.90;3.00;;;23.40;99.90;;;;;;4996206;28;20555;-72
2021/08/01 11:59:55;;;;;;;4.40;3.53;;;23.60;99.90;;;;;;4992474;28;20433;-72
2021/08/01 12:02:21;;;;;;;3.17;2.80;;;23.60;99.90;;;;;;4995036;28;20467;-72
2021/08/01 12:04:58;;;;;;;3.70;3.17;;;24.10;99.90;;;;;;4986151;28;20505;-72
2021/08/01 12:07:39;;;;;;;3.53;3.23;;;24.30;99.90;;;;;;4990843;28;20448;-72
2021/08/01 12:10:17;;;;;;;6.30;3.67;;;24.50;99.90;;;;;;4997633;28;20787;-72
2021/08/01 12:12:44;;;;;;;3.60;2.93;;;25.20;99.90;;;;;;4993099;28;20480;-72
2021/08/01 12:15:10;;;;;;;4.70;2.70;;;25.40;99.90;;;;;;4993635;28;20457;-72
2021/08/01 12:17:37;;;;;;;4.13;3.30;;;25.20;99.90;;;;;;4996520;28;20456;-72
2021/08/01 12:20:03;;;;;;;3.17;2.97;;;25.10;99.90;;;;;;4991935;28;20553;-72
2021/08/01 12:22:29;;;;;;;3.40;3.10;;;24.90;99.90;;;;;;4989845;28;20890;-72
2021/08/01 12:25:00;;;;;;;3.53;3.23;;;25.50;99.90;;;;;;4990518;28;20500;-72
2021/08/01 12:27:30;;;;;;;3.40;3.10;;;25.20;99.90;;;;;;4987312;28;20294;-72
2021/08/01 12:30:01;;;;;;;2.80;2.60;;;24.70;99.90;;;;;;4990834;28;20494;-71
2021/08/01 12:32:35;;;;;;;3.03;2.33;;;23.80;99.90;;;;;;4993049;28;20555;-72
2021/08/01 12:35:03;;;;;;;3.07;2.60;;;22.90;99.90;;;;;;4988576;28;20463;-71
2021/08/01 12:37:38;;;;;;;3.87;2.87;;;21.80;99.90;;;;;;4994940;28;20495;-71
2021/08/01 12:40:05;;;;;;;3.70;2.30;;;21.00;99.90;;;;;;4993157;28;20519;-72
2021/08/01 12:42:30;;;;;;;2.97;2.50;;;20.70;99.90;;;;;;4994865;28;20468;-72
2021/08/01 12:45:04;;;;;;;3.83;3.47;;;20.70;99.90;;;;;;4991915;28;20881;-71
2021/08/01 12:47:31;;;;;;;3.17;2.33;;;20.70;99.90;;;;;;4992575;28;20217;-72
2021/08/01 12:50:07;;;;;;;2.63;2.40;;;20.40;99.90;;;;;;4991397;28;20448;-73
2021/08/01 12:52:33;;;;;;;3.93;2.67;;;19.80;99.90;;;;;;4993842;28;20451;-72
2021/08/01 12:54:59;;;;;;;2.80;2.50;;;19.40;99.90;;;;;;4991042;28;20495;-71
2021/08/01 12:57:25;;;;;;;2.80;2.60;;;19.20;99.90;;;;;;4989947;28;20466;-72